sensor_id;sensor_type;location;lat;lon;timestamp;temperature;humidity
9901;DHT22;4989;48.772;9.154;2023-09-08T12:25:51;30.40;52.80
9901;DHT22;4989;48.772;9.154;2023-09-08T12:30:58;31.70;56.00
9901;DHT22;4989;48.772;9.154;2023-09-08T12:36:16;32.00;55.30
9901;DHT22;4989;48.772;9.154;2023-09-08T12:41:20;32.00;54.90
9901;DHT22;4989;48.772;9.154;2023-09-08T12:46:23;32.10;55.20
9901;DHT22;4989;48.772;9.154;2023-09-08T12:51:26;32.10;55.50
9901;DHT22;4989;48.772;9.154;2023-09-08T12:56:28;32.00;55.30
9901;DHT22;4989;48.772;9.154;2023-09-08T13:01:30;32.00;55.80
9901;DHT22;4989;48.772;9.154;2023-09-08T13:06:33;31.80;56.10
9901;DHT22;4989;48.772;9.154;2023-09-08T13:47:05;31.20;56.70
9901;DHT22;4989;48.772;9.154;2023-09-08T13:52:09;34.80;52.30
9901;DHT22;4989;48.772;9.154;2023-09-08T13:57:13;34.90;51.60
9901;DHT22;4989;48.772;9.154;2023-09-08T14:02:16;35.20;51.40
9901;DHT22;4989;48.772;9.154;2023-09-08T14:07:38;34.80;51.50
9901;DHT22;4989;48.772;9.154;2023-09-08T14:12:47;35.10;51.40
9901;DHT22;4989;48.772;9.154;2023-09-08T14:17:50;35.20;51.30
9901;DHT22;4989;48.772;9.154;2023-09-08T14:22:53;35.40;50.50
9901;DHT22;4989;48.772;9.154;2023-09-08T14:27:55;35.60;50.80
9901;DHT22;4989;48.772;9.154;2023-09-08T15:43:45;35.30;49.90
9901;DHT22;4989;48.772;9.154;2023-09-08T15:48:49;33.10;53.40
9901;DHT22;4989;48.772;9.154;2023-09-08T15:53:52;33.00;53.80
9901;DHT22;4989;48.772;9.154;2023-09-08T15:58:54;33.10;53.50
9901;DHT22;4989;48.772;9.154;2023-09-08T16:03:56;33.30;52.80
9901;DHT22;4989;48.772;9.154;2023-09-08T16:08:59;33.10;53.20
9901;DHT22;4989;48.772;9.154;2023-09-08T16:14:01;32.70;54.00
9901;DHT22;4989;48.772;9.154;2023-09-08T16:19:03;32.40;54.60
9901;DHT22;4989;48.772;9.154;2023-09-08T16:24:06;32.10;55.00
9901;DHT22;4989;48.772;9.154;2023-09-08T16:29:08;32.00;54.60
9901;DHT22;4989;48.772;9.154;2023-09-08T16:34:10;32.30;54.70
9901;DHT22;4989;48.772;9.154;2023-09-08T16:39:14;31.90;55.40
9901;DHT22;4989;48.772;9.154;2023-09-08T16:44:16;31.70;56.10
9901;DHT22;4989;48.772;9.154;2023-09-08T16:49:19;31.40;56.50
9901;DHT22;4989;48.772;9.154;2023-09-08T16:54:21;31.30;56.50
9901;DHT22;4989;48.772;9.154;2023-09-08T16:59:24;31.20;56.90
9901;DHT22;4989;48.772;9.154;2023-09-08T17:04:27;31.20;56.80
9901;DHT22;4989;48.772;9.154;2023-09-08T17:09:30;31.00;57.40
9901;DHT22;4989;48.772;9.154;2023-09-08T17:14:33;30.70;57.30
9901;DHT22;4989;48.772;9.154;2023-09-08T17:19:36;30.60;57.60
9901;DHT22;4989;48.772;9.154;2023-09-08T17:24:38;30.70;57.60
9901;DHT22;4989;48.772;9.154;2023-09-08T17:29:41;30.70;57.00
9901;DHT22;4989;48.772;9.154;2023-09-08T17:34:43;30.60;57.50
9901;DHT22;4989;48.772;9.154;2023-09-08T17:39:47;30.70;57.80
9901;DHT22;4989;48.772;9.154;2023-09-08T17:44:49;30.60;58.00
9901;DHT22;4989;48.772;9.154;2023-09-08T17:49:51;30.40;57.90
